createdAt,value
2018-03-27T00:01:06.425Z,0.60
2018-03-27T00:03:35.962Z,0.57
2018-03-27T00:06:05.085Z,0.50
2018-03-27T00:08:34.189Z,0.80
2018-03-27T00:11:03.601Z,0.60
2018-03-27T00:13:32.706Z,0.80
2018-03-27T00:16:02.402Z,0.50
2018-03-27T00:18:31.849Z,0.40
2018-03-27T00:21:00.959Z,0.60
2018-03-27T00:23:30.065Z,0.80
2018-03-27T00:25:59.549Z,0.70
2018-03-27T00:28:40.097Z,0.40
2018-03-27T00:31:20.549Z,0.63
2018-03-27T00:34:00.999Z,0.70
2018-03-27T00:36:41.503Z,0.70
2018-03-27T00:39:21.845Z,0.50
2018-03-27T00:55:29.887Z,0.77
2018-03-27T00:57:59.028Z,0.60
2018-03-27T01:00:28.164Z,0.67
2018-03-27T01:02:57.277Z,0.70
2018-03-27T01:05:26.377Z,0.60
2018-03-27T01:07:55.544Z,0.60
2018-03-27T01:10:24.673Z,0.70
2018-03-27T01:12:53.773Z,0.70
2018-03-27T01:15:22.876Z,0.60
2018-03-27T01:17:52.308Z,0.70
2018-03-27T01:20:21.409Z,0.80
2018-03-27T01:22:50.519Z,0.70
2018-03-27T01:25:19.646Z,0.60
2018-03-27T01:27:48.768Z,0.67
2018-03-27T01:30:17.870Z,0.70
2018-03-27T01:32:46.990Z,0.70
2018-03-27T01:35:16.089Z,0.60
2018-03-27T01:37:45.210Z,0.60
2018-03-27T01:40:14.701Z,0.60
2018-03-27T01:42:43.807Z,0.60
2018-03-27T01:45:12.902Z,0.40
2018-03-27T01:47:42.023Z,0.67
2018-03-27T01:50:11.114Z,0.60
2018-03-27T01:52:40.230Z,0.80
2018-03-27T01:55:09.478Z,0.63
2018-03-27T01:57:38.576Z,0.87
2018-03-27T02:00:07.677Z,0.63
2018-03-27T02:02:36.966Z,0.53
2018-03-27T02:05:05.967Z,0.60
2018-03-27T02:07:35.076Z,0.77
2018-03-27T02:10:04.198Z,0.50
2018-03-27T02:12:38.672Z,0.70
2018-03-27T02:15:13.486Z,0.60
2018-03-27T02:17:48.033Z,0.40
2018-03-27T02:20:22.741Z,0.70
2018-03-27T02:23:03.634Z,0.50
2018-03-27T02:25:33.123Z,0.80
2018-03-27T02:28:02.060Z,0.63
2018-03-27T02:30:31.378Z,0.70
2018-03-27T02:33:00.993Z,0.80
2018-03-27T02:35:30.088Z,0.63
2018-03-27T02:37:59.205Z,0.60
2018-03-27T02:40:28.344Z,0.77
2018-03-27T02:42:57.333Z,0.60
2018-03-27T02:45:26.453Z,0.70
2018-03-27T02:47:55.893Z,0.80
2018-03-27T02:50:25.004Z,0.60
2018-03-27T02:52:54.105Z,0.50
2018-03-27T02:55:23.221Z,0.70
2018-03-27T02:57:52.109Z,0.73
2018-03-27T03:00:21.208Z,0.60
2018-03-27T03:02:50.785Z,0.80
2018-03-27T03:18:23.535Z,1.10
2018-03-27T03:20:52.810Z,1.03
2018-03-27T03:23:21.913Z,1.00
2018-03-27T03:25:51.033Z,1.00
2018-03-27T03:28:20.177Z,1.20
2018-03-27T03:30:49.545Z,0.70
2018-03-27T03:33:19.029Z,1.20
2018-03-27T03:35:48.153Z,0.90
2018-03-27T03:38:17.260Z,0.93
2018-03-27T03:40:46.722Z,0.90
2018-03-27T03:43:15.817Z,0.90
2018-03-27T03:45:44.933Z,1.10
2018-03-27T03:48:14.402Z,1.00
2018-03-27T03:50:43.507Z,0.70
2018-03-27T03:53:12.625Z,1.07
2018-03-27T03:55:42.108Z,0.63
2018-03-27T03:58:11.247Z,0.73
2018-03-27T04:00:40.357Z,0.73
2018-03-27T04:03:09.811Z,0.90
2018-03-27T04:05:38.932Z,0.90
2018-03-27T04:08:08.030Z,0.80
2018-03-27T04:10:37.314Z,0.90
2018-03-27T04:13:06.408Z,0.80
2018-03-27T04:15:35.605Z,0.90
2018-03-27T04:18:04.721Z,0.80
2018-03-27T04:20:33.821Z,0.90
2018-03-27T04:23:02.922Z,1.00
2018-03-27T04:25:32.288Z,0.80
2018-03-27T04:28:01.390Z,0.90
2018-03-27T04:30:30.502Z,0.90
2018-03-27T04:32:59.969Z,1.00
2018-03-27T04:35:29.067Z,0.83
2018-03-27T04:37:58.181Z,0.80
2018-03-27T04:40:27.699Z,0.90
2018-03-27T04:42:56.866Z,0.70
2018-03-27T04:45:25.900Z,1.03
2018-03-27T04:47:55.382Z,0.90
2018-03-27T04:50:25.042Z,0.97
2018-03-27T04:52:54.159Z,0.90
2018-03-27T04:55:23.707Z,0.83
2018-03-27T04:57:52.811Z,0.70
2018-03-27T05:00:21.931Z,0.80
2018-03-27T05:02:51.690Z,1.17
2018-03-27T05:05:20.569Z,0.80
2018-03-27T05:07:49.687Z,1.00
2018-03-27T05:10:19.092Z,0.90
2018-03-27T05:12:48.200Z,1.03
2018-03-27T05:15:17.304Z,1.00
2018-03-27T05:17:46.772Z,0.90
2018-03-27T05:20:15.889Z,0.83
2018-03-27T05:22:45.067Z,0.70
2018-03-27T05:25:14.217Z,1.07
2018-03-27T05:27:43.330Z,1.03
2018-03-27T05:30:11.471Z,1.10
2018-03-27T05:32:40.831Z,0.83
2018-03-27T05:35:09.973Z,0.90
2018-03-27T05:37:39.081Z,0.80
2018-03-27T05:40:08.505Z,0.97
2018-03-27T05:42:37.607Z,0.90
2018-03-27T05:45:06.711Z,1.07
2018-03-27T05:47:36.222Z,1.00
2018-03-27T05:50:05.386Z,1.00
2018-03-27T05:52:34.511Z,0.97
2018-03-27T05:55:03.736Z,1.20
2018-03-27T05:57:32.859Z,1.10
2018-03-27T06:00:01.763Z,0.90
2018-03-27T06:02:31.209Z,1.17
2018-03-27T06:05:00.329Z,1.20
2018-03-27T06:07:29.433Z,1.27
2018-03-27T06:09:58.798Z,1.10
2018-03-27T06:12:28.006Z,1.30
2018-03-27T06:14:57.112Z,1.13
2018-03-27T06:17:26.574Z,1.07
2018-03-27T06:19:55.484Z,1.17
2018-03-27T06:22:24.597Z,1.23
2018-03-27T06:24:53.747Z,1.10
2018-03-27T06:27:22.924Z,1.17
2018-03-27T06:29:52.218Z,1.20
2018-03-27T06:32:21.663Z,1.20
2018-03-27T06:34:50.881Z,1.50
2018-03-27T06:37:19.977Z,1.47
2018-03-27T06:39:49.098Z,1.33
2018-03-27T06:42:18.278Z,1.07
2018-03-27T06:44:47.566Z,1.10
2018-03-27T06:47:17.077Z,1.40
2018-03-27T06:49:46.194Z,1.07
2018-03-27T06:52:16.090Z,1.17
2018-03-27T06:54:45.261Z,1.40
2018-03-27T06:57:14.368Z,1.43
2018-03-27T06:59:43.484Z,1.60
2018-03-27T07:02:12.987Z,1.20
2018-03-27T07:04:42.093Z,1.10
2018-03-27T07:07:11.214Z,1.23
2018-03-27T07:09:40.766Z,1.30
2018-03-27T07:12:09.908Z,1.60
2018-03-27T07:14:39.035Z,1.20
2018-03-27T07:17:08.400Z,1.20
2018-03-27T07:19:37.866Z,1.50
2018-03-27T07:22:07.007Z,1.50
2018-03-27T07:24:36.455Z,1.40
2018-03-27T07:27:05.556Z,1.17
2018-03-27T07:29:34.917Z,1.20
2018-03-27T07:32:04.343Z,1.50
2018-03-27T07:34:33.578Z,1.63
2018-03-27T07:37:02.698Z,1.60
2018-03-27T07:39:32.186Z,1.60
2018-03-27T07:42:01.295Z,1.20
2018-03-27T07:44:30.417Z,1.40
2018-03-27T07:46:59.952Z,1.80
2018-03-27T07:49:29.116Z,1.50
2018-03-27T07:51:58.387Z,1.60
2018-03-27T07:54:27.518Z,1.57
2018-03-27T07:56:56.636Z,1.50
2018-03-27T07:59:25.754Z,1.70
2018-03-27T08:01:54.882Z,1.40
2018-03-27T08:04:24.014Z,1.57
2018-03-27T08:06:53.181Z,1.40
2018-03-27T08:09:22.442Z,1.57
2018-03-27T08:11:51.361Z,1.47
2018-03-27T08:14:20.461Z,1.47
2018-03-27T08:16:49.613Z,1.60
2018-03-27T08:19:18.722Z,1.50
2018-03-27T08:21:47.895Z,1.37
2018-03-27T08:24:17.078Z,1.43
2018-03-27T08:26:46.405Z,1.40
2018-03-27T08:29:15.504Z,1.23
2018-03-27T08:31:44.968Z,1.40
2018-03-27T08:34:14.109Z,1.37
2018-03-27T08:36:43.246Z,1.50
2018-03-27T08:39:12.411Z,1.40
2018-03-27T08:41:41.377Z,1.40
2018-03-27T08:44:11.249Z,1.80
2018-03-27T08:46:40.436Z,1.80
2018-03-27T08:49:09.641Z,1.60
2018-03-27T08:51:38.763Z,1.33
2018-03-27T08:54:08.264Z,1.90
2018-03-27T08:56:37.389Z,1.53
2018-03-27T08:59:06.531Z,1.50
2018-03-27T09:01:36.057Z,1.57
2018-03-27T09:04:05.974Z,1.60
2018-03-27T09:06:35.124Z,1.63
2018-03-27T09:09:04.026Z,1.27
2018-03-27T09:11:33.132Z,1.40
2018-03-27T09:14:02.090Z,1.40
2018-03-27T09:16:31.034Z,1.43
2018-03-27T09:19:00.155Z,1.50
2018-03-27T09:21:29.451Z,1.30
2018-03-27T09:23:58.587Z,1.50
2018-03-27T09:26:27.689Z,1.30
2018-03-27T09:28:56.693Z,1.20
2018-03-27T09:31:25.804Z,1.00
2018-03-27T09:33:54.936Z,1.70
2018-03-27T09:36:24.437Z,1.37
2018-03-27T09:38:53.553Z,1.43
2018-03-27T09:41:22.733Z,1.20
2018-03-27T09:43:51.849Z,1.40
2018-03-27T09:46:20.955Z,1.30
2018-03-27T09:48:50.073Z,1.60
2018-03-27T09:51:19.188Z,1.40
2018-03-27T09:53:48.293Z,1.20
2018-03-27T09:56:17.402Z,1.20
2018-03-27T09:58:46.614Z,1.30
2018-03-27T10:01:21.135Z,1.67
2018-03-27T10:03:50.335Z,1.67
2018-03-27T10:06:19.673Z,1.43
2018-03-27T10:08:48.781Z,1.40
2018-03-27T10:11:18.115Z,1.30
2018-03-27T10:13:47.237Z,1.27
2018-03-27T10:16:16.351Z,1.60
2018-03-27T10:18:45.605Z,1.47
2018-03-27T10:21:14.714Z,1.30
2018-03-27T10:23:43.824Z,1.50
2018-03-27T10:26:12.953Z,1.47
2018-03-27T10:28:42.059Z,1.53
2018-03-27T10:31:11.191Z,1.33
2018-03-27T10:33:40.316Z,1.40
2018-03-27T10:36:09.416Z,1.50
2018-03-27T10:38:38.553Z,1.40
2018-03-27T10:41:07.674Z,1.80
2018-03-27T10:43:36.789Z,1.30
2018-03-27T10:46:05.884Z,1.67
2018-03-27T10:48:35.008Z,1.70
2018-03-27T10:51:04.131Z,2.00
2018-03-27T10:53:33.292Z,1.90
2018-03-27T10:56:02.418Z,1.60
2018-03-27T10:58:31.538Z,1.83
2018-03-27T11:01:00.637Z,1.97
2018-03-27T11:03:29.787Z,1.50
2018-03-27T11:05:58.892Z,2.17
2018-03-27T11:08:27.998Z,1.83
2018-03-27T11:10:57.437Z,2.10
2018-03-27T11:13:26.556Z,1.83
2018-03-27T11:15:55.661Z,1.90
2018-03-27T11:18:25.119Z,1.90
2018-03-27T11:20:54.227Z,2.00
2018-03-27T11:23:23.377Z,1.90
2018-03-27T11:25:52.677Z,1.80
2018-03-27T11:28:21.800Z,1.80
2018-03-27T11:30:50.897Z,1.90
2018-03-27T11:33:20.090Z,2.10
2018-03-27T11:35:49.194Z,2.07
2018-03-27T11:38:18.316Z,1.73
2018-03-27T11:40:47.438Z,1.93
2018-03-27T11:43:16.567Z,1.87
2018-03-27T11:45:45.675Z,1.80
2018-03-27T11:48:15.177Z,2.17
2018-03-27T11:50:44.284Z,1.80
2018-03-27T11:53:13.381Z,1.70
2018-03-27T11:55:42.516Z,1.67
2018-03-27T11:58:11.629Z,1.90
2018-03-27T12:00:40.812Z,2.17
2018-03-27T12:03:10.261Z,1.83
2018-03-27T12:05:39.403Z,1.97
2018-03-27T12:08:08.537Z,2.10
2018-03-27T12:10:37.655Z,1.67
2018-03-27T12:13:06.773Z,2.20
2018-03-27T12:15:35.883Z,1.87
2018-03-27T12:18:05.074Z,1.63
2018-03-27T12:20:34.173Z,2.30
2018-03-27T12:23:03.290Z,2.17
2018-03-27T12:25:32.413Z,1.93
2018-03-27T12:28:02.184Z,1.80
2018-03-27T12:30:31.310Z,1.97
2018-03-27T12:33:00.225Z,2.37
2018-03-27T12:35:29.359Z,2.07
2018-03-27T12:37:58.474Z,2.43
2018-03-27T12:40:27.613Z,1.57
2018-03-27T12:42:56.717Z,1.60
2018-03-27T12:45:25.882Z,1.93
2018-03-27T12:47:55.021Z,2.30
2018-03-27T12:50:24.198Z,1.83
2018-03-27T12:52:53.301Z,1.80
2018-03-27T12:55:22.448Z,1.83
2018-03-27T12:57:51.453Z,1.50
2018-03-27T13:00:20.592Z,1.70
2018-03-27T13:02:50.100Z,1.73
2018-03-27T13:05:19.104Z,1.90
2018-03-27T13:07:48.210Z,1.70
2018-03-27T13:10:17.674Z,1.50
2018-03-27T13:12:46.790Z,1.40
2018-03-27T13:15:15.903Z,1.60
2018-03-27T13:17:45.079Z,1.40
2018-03-27T13:20:14.220Z,1.30
2018-03-27T13:22:43.345Z,1.20
2018-03-27T13:25:12.312Z,1.20
2018-03-27T13:27:41.412Z,1.27
2018-03-27T13:30:10.365Z,1.40
2018-03-27T13:32:39.513Z,1.20
2018-03-27T13:35:09.262Z,1.30
2018-03-27T13:37:38.365Z,1.13
2018-03-27T13:40:07.281Z,1.23
2018-03-27T13:42:36.253Z,1.00
2018-03-27T13:45:05.261Z,1.00
2018-03-27T13:47:34.390Z,1.30
2018-03-27T13:50:03.515Z,1.20
2018-03-27T13:52:32.637Z,1.53
2018-03-27T13:55:01.779Z,1.33
2018-03-27T13:57:30.913Z,1.10
2018-03-27T14:00:00.038Z,1.43
2018-03-27T14:02:29.598Z,1.10
2018-03-27T14:04:58.621Z,0.90
2018-03-27T14:07:27.729Z,1.10
2018-03-27T14:09:56.849Z,1.13
2018-03-27T14:12:25.966Z,1.00
2018-03-27T14:14:55.076Z,1.20
2018-03-27T14:17:24.222Z,1.03
2018-03-27T14:19:53.322Z,1.07
2018-03-27T14:22:22.429Z,1.00
2018-03-27T14:24:51.552Z,1.00
2018-03-27T14:27:20.669Z,1.40
2018-03-27T14:29:49.783Z,0.97
2018-03-27T14:32:19.280Z,1.13
2018-03-27T14:34:48.439Z,1.00
2018-03-27T14:37:17.364Z,1.30
2018-03-27T14:39:46.799Z,1.07
2018-03-27T14:42:15.770Z,1.07
2018-03-27T14:44:44.903Z,0.90
2018-03-27T14:47:14.227Z,1.37
2018-03-27T14:49:43.338Z,1.10
2018-03-27T14:52:12.480Z,1.23
2018-03-27T14:54:41.413Z,1.30
2018-03-27T14:57:10.535Z,0.87
2018-03-27T14:59:39.671Z,1.07
2018-03-27T15:02:08.820Z,1.10
2018-03-27T15:04:37.945Z,0.93
2018-03-27T15:07:07.071Z,0.90
2018-03-27T15:09:36.194Z,1.00
2018-03-27T15:12:05.300Z,1.10
2018-03-27T15:14:34.410Z,1.20
2018-03-27T15:17:03.342Z,1.00
2018-03-27T15:19:32.474Z,1.10
2018-03-27T15:22:01.583Z,0.90
2018-03-27T15:24:31.062Z,0.90
2018-03-27T15:27:00.173Z,1.27
2018-03-27T15:29:29.117Z,1.03
2018-03-27T15:31:58.249Z,0.73
2018-03-27T15:34:27.358Z,0.70
2018-03-27T15:36:56.457Z,1.23
2018-03-27T15:39:25.665Z,1.10
2018-03-27T15:41:54.789Z,0.90
2018-03-27T15:44:23.918Z,1.00
2018-03-27T15:46:53.054Z,1.10
2018-03-27T15:49:22.156Z,1.00
2018-03-27T15:51:51.274Z,1.10
2018-03-27T15:54:20.393Z,1.10
2018-03-27T15:56:49.518Z,1.10
2018-03-27T15:59:18.629Z,1.30
2018-03-27T16:01:48.129Z,1.00
2018-03-27T16:04:17.257Z,0.97
2018-03-27T16:06:46.370Z,1.00
2018-03-27T16:09:15.493Z,1.00
2018-03-27T16:11:44.599Z,1.07
2018-03-27T16:14:13.703Z,0.83
2018-03-27T16:16:42.819Z,1.00
2018-03-27T16:19:11.938Z,1.00
2018-03-27T16:21:41.081Z,0.97
2018-03-27T16:24:10.199Z,0.90
2018-03-27T16:26:39.344Z,0.97
2018-03-27T16:29:08.465Z,0.90
2018-03-27T16:31:37.623Z,1.00
2018-03-27T16:34:06.502Z,0.90
2018-03-27T16:36:35.711Z,1.00
2018-03-27T16:39:04.536Z,0.93
2018-03-27T16:41:33.657Z,0.80
2018-03-27T16:44:02.688Z,1.03
2018-03-27T16:46:32.847Z,0.97
2018-03-27T16:49:01.970Z,1.00
2018-03-27T16:51:31.069Z,0.90
2018-03-27T16:54:00.344Z,1.10
2018-03-27T16:56:29.715Z,0.90
2018-03-27T16:58:58.669Z,0.97
2018-03-27T17:01:27.685Z,0.90
2018-03-27T17:03:56.649Z,1.10
2018-03-27T17:06:26.333Z,0.80
2018-03-27T17:08:56.293Z,0.70
2018-03-27T17:11:25.405Z,1.00
2018-03-27T17:13:54.540Z,0.83
2018-03-27T17:16:23.669Z,1.00
2018-03-27T17:18:52.530Z,1.10
2018-03-27T17:21:21.834Z,0.90
2018-03-27T17:23:51.014Z,0.77
2018-03-27T17:26:20.125Z,0.70
2018-03-27T17:28:49.238Z,1.10
2018-03-27T17:31:18.629Z,0.87
2018-03-27T17:33:47.740Z,0.90
2018-03-27T17:36:16.844Z,0.70
2018-03-27T17:38:45.993Z,0.60
2018-03-27T17:41:15.092Z,0.63
2018-03-27T17:43:44.190Z,0.80
2018-03-27T17:46:14.045Z,0.83
2018-03-27T17:48:43.145Z,1.00
2018-03-27T17:51:12.251Z,0.80
2018-03-27T17:53:41.431Z,0.90
2018-03-27T17:56:10.338Z,1.00
2018-03-27T17:58:39.465Z,0.73
2018-03-27T18:01:08.382Z,0.70
2018-03-27T18:03:37.392Z,0.80
2018-03-27T18:06:06.392Z,0.70
2018-03-27T18:08:35.393Z,0.67
2018-03-27T18:11:04.363Z,0.90
2018-03-27T18:13:33.452Z,0.73
2018-03-27T18:16:02.586Z,0.97
2018-03-27T18:18:31.692Z,1.07
2018-03-27T18:21:00.802Z,1.00
2018-03-27T18:23:29.929Z,0.80
2018-03-27T18:25:59.037Z,1.00
2018-03-27T18:28:28.146Z,0.93
2018-03-27T18:30:57.290Z,0.90
2018-03-27T18:33:26.553Z,0.80
2018-03-27T18:35:56.285Z,1.00
2018-03-27T18:38:25.408Z,0.90
2018-03-27T18:40:54.514Z,0.83
2018-03-27T18:43:23.627Z,0.80
2018-03-27T18:45:52.562Z,0.70
2018-03-27T18:48:21.669Z,0.93
2018-03-27T18:50:50.773Z,0.57
2018-03-27T18:53:19.939Z,0.70
2018-03-27T18:55:49.049Z,0.60
2018-03-27T18:58:18.938Z,1.10
2018-03-27T19:00:48.502Z,1.20
2018-03-27T19:03:17.613Z,0.80
2018-03-27T19:05:46.720Z,1.00
2018-03-27T19:08:16.189Z,0.90
2018-03-27T19:10:45.314Z,0.87
2018-03-27T19:13:14.316Z,0.93
2018-03-27T19:15:43.440Z,0.60
2018-03-27T19:18:12.542Z,0.93
2018-03-27T19:20:41.677Z,1.10
2018-03-27T19:23:10.767Z,0.70
2018-03-27T19:25:40.053Z,1.00
2018-03-27T19:28:09.150Z,0.80
2018-03-27T19:30:38.277Z,0.90
2018-03-27T19:33:07.458Z,0.87
2018-03-27T19:35:36.554Z,1.00
2018-03-27T19:38:05.681Z,1.00
2018-03-27T19:40:34.778Z,1.00
2018-03-27T19:43:03.875Z,0.77
2018-03-27T19:45:33.026Z,0.83
2018-03-27T19:48:02.062Z,0.90
2018-03-27T19:50:31.165Z,0.97
2018-03-27T19:53:00.526Z,1.13
2018-03-27T19:55:29.663Z,1.00
2018-03-27T19:57:58.820Z,1.20
2018-03-27T20:00:27.946Z,1.17
2018-03-27T20:02:57.049Z,0.90
2018-03-27T20:05:26.184Z,1.10
2018-03-27T20:07:55.593Z,0.80
2018-03-27T20:10:24.707Z,0.67
2018-03-27T20:12:53.817Z,0.70
2018-03-27T20:15:22.940Z,0.80
2018-03-27T20:17:51.897Z,0.80
2018-03-27T20:20:21.024Z,0.70
2018-03-27T20:22:50.201Z,0.47
2018-03-27T20:25:19.326Z,0.63
2018-03-27T20:27:48.425Z,0.60
2018-03-27T20:30:17.566Z,0.70
2018-03-27T20:32:46.678Z,0.70
2018-03-27T20:35:17.078Z,0.70
2018-03-27T20:37:47.226Z,0.70
2018-03-27T20:40:17.413Z,0.90
2018-03-27T20:42:47.764Z,0.70
2018-03-27T20:45:16.876Z,0.80
2018-03-27T20:47:46.375Z,0.70
2018-03-27T20:50:15.793Z,0.50
2018-03-27T20:52:44.842Z,0.60
2018-03-27T20:55:13.861Z,0.70
2018-03-27T20:57:42.873Z,0.67
2018-03-27T21:00:11.989Z,0.50
2018-03-27T21:02:41.065Z,0.87
2018-03-27T21:05:10.577Z,0.60
2018-03-27T21:07:39.884Z,0.60
2018-03-27T21:10:08.928Z,0.50
2018-03-27T21:12:38.432Z,0.60
2018-03-27T21:15:07.540Z,0.63
2018-03-27T21:17:36.438Z,0.70
2018-03-27T21:20:05.565Z,0.77
2018-03-27T21:22:34.673Z,0.70
2018-03-27T21:25:03.609Z,0.90
2018-03-27T21:27:32.805Z,0.50
2018-03-27T21:30:01.909Z,0.50
2018-03-27T21:32:30.937Z,0.53
2018-03-27T21:35:00.131Z,0.40
2018-03-27T21:37:29.205Z,0.47
2018-03-27T21:39:58.304Z,0.80
2018-03-27T21:42:27.431Z,0.63
2018-03-27T21:44:56.540Z,0.70
2018-03-27T21:47:25.651Z,0.50
2018-03-27T21:49:54.781Z,0.70
2018-03-27T21:52:23.898Z,0.80
2018-03-27T21:54:52.811Z,0.60
2018-03-27T21:57:22.653Z,0.70
2018-03-27T21:59:51.768Z,0.40
2018-03-27T22:02:20.878Z,0.70
2018-03-27T22:04:49.878Z,0.60
2018-03-27T22:07:18.843Z,0.50
2018-03-27T22:09:47.943Z,0.60
2018-03-27T22:12:17.066Z,0.60
2018-03-27T22:14:46.037Z,0.80
2018-03-27T22:17:15.134Z,0.60
2018-03-27T22:19:44.256Z,0.60
2018-03-27T22:22:13.373Z,0.50
2018-03-27T22:24:42.478Z,0.57
2018-03-27T22:27:11.659Z,0.70
2018-03-27T22:29:39.798Z,0.80
2018-03-27T22:32:08.761Z,0.80
2018-03-27T22:34:37.886Z,0.70
2018-03-27T22:37:07.199Z,0.80
2018-03-27T22:39:36.332Z,0.77
2018-03-27T22:42:05.273Z,0.90
2018-03-27T22:44:34.261Z,0.70
2018-03-27T22:47:03.361Z,0.70
2018-03-27T22:49:32.527Z,0.80
2018-03-27T22:52:01.625Z,0.70
2018-03-27T22:54:30.729Z,0.67
2018-03-27T22:57:00.389Z,0.70
2018-03-27T22:59:29.525Z,0.67
2018-03-27T23:01:58.636Z,0.70
2018-03-27T23:04:27.561Z,0.83
2018-03-27T23:06:56.669Z,0.90
2018-03-27T23:09:25.656Z,0.80
2018-03-27T23:11:54.956Z,0.70
2018-03-27T23:14:24.129Z,0.70
2018-03-27T23:16:53.195Z,0.60
2018-03-27T23:19:23.190Z,1.00
2018-03-27T23:21:52.881Z,0.83
2018-03-27T23:24:21.981Z,0.90
2018-03-27T23:26:50.948Z,0.80
2018-03-27T23:29:20.100Z,0.80
2018-03-27T23:31:49.200Z,0.93
2018-03-27T23:34:18.689Z,0.87
2018-03-27T23:36:47.808Z,0.80
2018-03-27T23:39:16.918Z,1.10
2018-03-27T23:41:46.172Z,1.00
2018-03-27T23:44:15.271Z,0.80
2018-03-27T23:46:44.185Z,0.80
2018-03-27T23:49:13.374Z,0.93
2018-03-27T23:51:42.485Z,0.87
2018-03-27T23:54:11.581Z,0.90
2018-03-27T23:56:40.715Z,0.77
2018-03-27T23:59:09.816Z,0.80
